sensor_id;sensor_type;location;lat;lon;timestamp;P1;durP1;ratioP1;P2;durP2;ratioP2
4833;SDS011;12895;51.064;7.028;2023-07-20T00:01:09;7.63;;;4.60;;
4833;SDS011;12895;51.064;7.028;2023-07-20T00:03:58;4.97;;;4.43;;
4833;SDS011;12895;51.064;7.028;2023-07-20T00:06:44;4.57;;;4.17;;
4833;SDS011;12895;51.064;7.028;2023-07-20T00:09:31;5.03;;;3.67;;
4833;SDS011;12895;51.064;7.028;2023-07-20T00:12:18;5.93;;;4.10;;
4833;SDS011;12895;51.064;7.028;2023-07-20T00:15:05;4.30;;;3.90;;
4833;SDS011;12895;51.064;7.028;2023-07-20T00:17:53;4.53;;;4.00;;
4833;SDS011;12895;51.064;7.028;2023-07-20T00:20:41;4.57;;;4.20;;
4833;SDS011;12895;51.064;7.028;2023-07-20T00:23:28;6.53;;;4.13;;
4833;SDS011;12895;51.064;7.028;2023-07-20T00:26:15;5.03;;;4.63;;
4833;SDS011;12895;51.064;7.028;2023-07-20T00:29:02;4.27;;;3.87;;
4833;SDS011;12895;51.064;7.028;2023-07-20T00:31:49;4.50;;;4.00;;
4833;SDS011;12895;51.064;7.028;2023-07-20T00:34:36;4.30;;;3.90;;
4833;SDS011;12895;51.064;7.028;2023-07-20T00:37:25;4.40;;;4.00;;
4833;SDS011;12895;51.064;7.028;2023-07-20T00:40:12;4.97;;;4.40;;
4833;SDS011;12895;51.064;7.028;2023-07-20T00:42:59;5.33;;;4.23;;
4833;SDS011;12895;51.064;7.028;2023-07-20T00:45:45;4.87;;;4.43;;
4833;SDS011;12895;51.064;7.028;2023-07-20T00:48:33;4.67;;;4.20;;
4833;SDS011;12895;51.064;7.028;2023-07-20T00:51:22;4.93;;;4.50;;
4833;SDS011;12895;51.064;7.028;2023-07-20T00:54:11;5.13;;;4.73;;
4833;SDS011;12895;51.064;7.028;2023-07-20T00:56:59;4.30;;;3.90;;
4833;SDS011;12895;51.064;7.028;2023-07-20T00:59:47;5.80;;;4.47;;
4833;SDS011;12895;51.064;7.028;2023-07-20T01:02:34;7.33;;;4.53;;
4833;SDS011;12895;51.064;7.028;2023-07-20T01:05:22;5.03;;;4.20;;
4833;SDS011;12895;51.064;7.028;2023-07-20T01:08:20;5.63;;;4.90;;
4833;SDS011;12895;51.064;7.028;2023-07-20T01:11:16;6.03;;;4.93;;
4833;SDS011;12895;51.064;7.028;2023-07-20T01:14:10;6.03;;;5.43;;
4833;SDS011;12895;51.064;7.028;2023-07-20T01:16:58;7.67;;;4.53;;
4833;SDS011;12895;51.064;7.028;2023-07-20T01:19:46;6.17;;;4.73;;
4833;SDS011;12895;51.064;7.028;2023-07-20T01:22:39;6.10;;;4.70;;
4833;SDS011;12895;51.064;7.028;2023-07-20T01:25:44;6.30;;;4.73;;
4833;SDS011;12895;51.064;7.028;2023-07-20T01:32:06;9.10;;;4.83;;
4833;SDS011;12895;51.064;7.028;2023-07-20T01:34:56;5.13;;;4.67;;
4833;SDS011;12895;51.064;7.028;2023-07-20T01:37:45;5.33;;;4.50;;
4833;SDS011;12895;51.064;7.028;2023-07-20T01:40:34;5.53;;;5.00;;
4833;SDS011;12895;51.064;7.028;2023-07-20T01:43:23;6.67;;;4.77;;
4833;SDS011;12895;51.064;7.028;2023-07-20T01:46:10;6.33;;;5.37;;
4833;SDS011;12895;51.064;7.028;2023-07-20T01:48:59;5.50;;;4.93;;
4833;SDS011;12895;51.064;7.028;2023-07-20T01:51:46;7.33;;;5.00;;
4833;SDS011;12895;51.064;7.028;2023-07-20T01:54:33;6.33;;;5.00;;
4833;SDS011;12895;51.064;7.028;2023-07-20T01:57:20;4.80;;;4.40;;
4833;SDS011;12895;51.064;7.028;2023-07-20T02:00:07;6.17;;;5.50;;
4833;SDS011;12895;51.064;7.028;2023-07-20T02:03:00;9.30;;;5.70;;
4833;SDS011;12895;51.064;7.028;2023-07-20T02:05:49;5.53;;;4.60;;
4833;SDS011;12895;51.064;7.028;2023-07-20T02:08:36;5.33;;;4.73;;
4833;SDS011;12895;51.064;7.028;2023-07-20T02:11:23;6.40;;;5.00;;
4833;SDS011;12895;51.064;7.028;2023-07-20T02:14:10;5.93;;;4.37;;
4833;SDS011;12895;51.064;7.028;2023-07-20T02:16:57;6.77;;;4.87;;
4833;SDS011;12895;51.064;7.028;2023-07-20T02:19:50;4.23;;;3.90;;
4833;SDS011;12895;51.064;7.028;2023-07-20T02:22:39;5.63;;;4.70;;
4833;SDS011;12895;51.064;7.028;2023-07-20T02:25:27;5.10;;;4.70;;
4833;SDS011;12895;51.064;7.028;2023-07-20T02:28:14;6.13;;;4.43;;
4833;SDS011;12895;51.064;7.028;2023-07-20T02:31:01;5.00;;;4.50;;
4833;SDS011;12895;51.064;7.028;2023-07-20T02:33:49;7.13;;;4.50;;
4833;SDS011;12895;51.064;7.028;2023-07-20T02:36:36;4.70;;;4.30;;
4833;SDS011;12895;51.064;7.028;2023-07-20T02:39:24;4.90;;;4.33;;
4833;SDS011;12895;51.064;7.028;2023-07-20T02:42:11;5.20;;;4.80;;
4833;SDS011;12895;51.064;7.028;2023-07-20T02:44:58;7.07;;;5.07;;
4833;SDS011;12895;51.064;7.028;2023-07-20T02:47:45;7.53;;;5.40;;
4833;SDS011;12895;51.064;7.028;2023-07-20T02:50:32;4.80;;;4.40;;
4833;SDS011;12895;51.064;7.028;2023-07-20T02:53:20;5.00;;;4.60;;
4833;SDS011;12895;51.064;7.028;2023-07-20T02:56:08;6.23;;;4.47;;
4833;SDS011;12895;51.064;7.028;2023-07-20T02:58:55;5.33;;;4.80;;
4833;SDS011;12895;51.064;7.028;2023-07-20T03:01:42;7.63;;;4.90;;
4833;SDS011;12895;51.064;7.028;2023-07-20T03:04:29;5.30;;;4.90;;
4833;SDS011;12895;51.064;7.028;2023-07-20T03:07:16;5.00;;;4.60;;
4833;SDS011;12895;51.064;7.028;2023-07-20T03:10:04;4.70;;;4.23;;
4833;SDS011;12895;51.064;7.028;2023-07-20T03:12:56;7.63;;;4.73;;
4833;SDS011;12895;51.064;7.028;2023-07-20T03:15:43;5.73;;;5.13;;
4833;SDS011;12895;51.064;7.028;2023-07-20T03:18:30;5.30;;;4.60;;
4833;SDS011;12895;51.064;7.028;2023-07-20T03:21:17;5.73;;;4.77;;
4833;SDS011;12895;51.064;7.028;2023-07-20T03:24:04;7.40;;;4.87;;
4833;SDS011;12895;51.064;7.028;2023-07-20T03:26:52;8.43;;;4.90;;
4833;SDS011;12895;51.064;7.028;2023-07-20T03:29:40;7.13;;;5.37;;
4833;SDS011;12895;51.064;7.028;2023-07-20T03:32:29;5.17;;;4.53;;
4833;SDS011;12895;51.064;7.028;2023-07-20T03:35:16;6.03;;;5.03;;
4833;SDS011;12895;51.064;7.028;2023-07-20T03:38:04;5.83;;;5.07;;
4833;SDS011;12895;51.064;7.028;2023-07-20T03:40:51;6.57;;;5.97;;
4833;SDS011;12895;51.064;7.028;2023-07-20T03:43:39;6.37;;;5.13;;
4833;SDS011;12895;51.064;7.028;2023-07-20T03:46:27;5.63;;;5.13;;
4833;SDS011;12895;51.064;7.028;2023-07-20T03:49:14;7.07;;;4.80;;
4833;SDS011;12895;51.064;7.028;2023-07-20T03:52:01;6.03;;;4.70;;
4833;SDS011;12895;51.064;7.028;2023-07-20T03:54:49;5.50;;;5.00;;
4833;SDS011;12895;51.064;7.028;2023-07-20T03:57:37;5.60;;;5.00;;
4833;SDS011;12895;51.064;7.028;2023-07-20T04:00:24;6.57;;;4.93;;
4833;SDS011;12895;51.064;7.028;2023-07-20T04:03:14;6.93;;;5.20;;
4833;SDS011;12895;51.064;7.028;2023-07-20T04:06:01;7.23;;;4.87;;
4833;SDS011;12895;51.064;7.028;2023-07-20T04:08:48;5.70;;;5.20;;
4833;SDS011;12895;51.064;7.028;2023-07-20T04:11:35;7.70;;;4.50;;
4833;SDS011;12895;51.064;7.028;2023-07-20T04:14:22;9.43;;;5.50;;
4833;SDS011;12895;51.064;7.028;2023-07-20T04:17:09;8.10;;;5.50;;
4833;SDS011;12895;51.064;7.028;2023-07-20T04:20:00;6.50;;;4.63;;
4833;SDS011;12895;51.064;7.028;2023-07-20T04:22:48;7.73;;;5.37;;
4833;SDS011;12895;51.064;7.028;2023-07-20T04:25:35;9.53;;;5.80;;
4833;SDS011;12895;51.064;7.028;2023-07-20T04:28:26;5.83;;;5.17;;
4833;SDS011;12895;51.064;7.028;2023-07-20T04:31:13;6.07;;;5.40;;
4833;SDS011;12895;51.064;7.028;2023-07-20T04:34:02;6.50;;;5.30;;
4833;SDS011;12895;51.064;7.028;2023-07-20T04:36:51;9.07;;;5.83;;
4833;SDS011;12895;51.064;7.028;2023-07-20T04:39:40;8.07;;;4.63;;
4833;SDS011;12895;51.064;7.028;2023-07-20T04:42:30;6.83;;;5.13;;
4833;SDS011;12895;51.064;7.028;2023-07-20T04:45:17;7.70;;;5.47;;
4833;SDS011;12895;51.064;7.028;2023-07-20T04:48:06;8.53;;;5.60;;
4833;SDS011;12895;51.064;7.028;2023-07-20T04:50:56;8.07;;;5.60;;
4833;SDS011;12895;51.064;7.028;2023-07-20T04:53:46;5.67;;;5.10;;
4833;SDS011;12895;51.064;7.028;2023-07-20T04:56:33;8.43;;;5.57;;
4833;SDS011;12895;51.064;7.028;2023-07-20T04:59:21;8.10;;;5.63;;
4833;SDS011;12895;51.064;7.028;2023-07-20T05:02:09;6.30;;;5.63;;
4833;SDS011;12895;51.064;7.028;2023-07-20T05:04:56;8.20;;;6.80;;
4833;SDS011;12895;51.064;7.028;2023-07-20T05:07:43;8.70;;;5.93;;
4833;SDS011;12895;51.064;7.028;2023-07-20T05:10:31;9.77;;;6.20;;
4833;SDS011;12895;51.064;7.028;2023-07-20T05:13:19;8.93;;;6.97;;
4833;SDS011;12895;51.064;7.028;2023-07-20T05:16:05;10.20;;;7.60;;
4833;SDS011;12895;51.064;7.028;2023-07-20T05:18:53;9.43;;;7.20;;
4833;SDS011;12895;51.064;7.028;2023-07-20T05:21:42;10.20;;;7.77;;
4833;SDS011;12895;51.064;7.028;2023-07-20T05:24:29;12.77;;;6.87;;
4833;SDS011;12895;51.064;7.028;2023-07-20T05:27:17;9.33;;;7.73;;
4833;SDS011;12895;51.064;7.028;2023-07-20T05:30:05;11.13;;;8.97;;
4833;SDS011;12895;51.064;7.028;2023-07-20T05:32:53;9.70;;;8.00;;
4833;SDS011;12895;51.064;7.028;2023-07-20T05:35:40;11.67;;;9.20;;
4833;SDS011;12895;51.064;7.028;2023-07-20T05:38:27;9.83;;;8.83;;
4833;SDS011;12895;51.064;7.028;2023-07-20T05:41:14;12.13;;;9.10;;
4833;SDS011;12895;51.064;7.028;2023-07-20T05:44:02;14.57;;;9.50;;
4833;SDS011;12895;51.064;7.028;2023-07-20T05:46:49;10.13;;;9.20;;
4833;SDS011;12895;51.064;7.028;2023-07-20T05:49:36;10.83;;;9.73;;
4833;SDS011;12895;51.064;7.028;2023-07-20T05:52:23;13.63;;;10.93;;
4833;SDS011;12895;51.064;7.028;2023-07-20T05:55:10;12.87;;;11.53;;
4833;SDS011;12895;51.064;7.028;2023-07-20T05:57:57;11.93;;;10.47;;
4833;SDS011;12895;51.064;7.028;2023-07-20T06:00:47;11.70;;;10.50;;
4833;SDS011;12895;51.064;7.028;2023-07-20T06:03:34;11.40;;;10.30;;
4833;SDS011;12895;51.064;7.028;2023-07-20T06:06:22;14.50;;;12.23;;
4833;SDS011;12895;51.064;7.028;2023-07-20T06:09:09;13.70;;;12.40;;
4833;SDS011;12895;51.064;7.028;2023-07-20T06:11:57;13.43;;;12.10;;
4833;SDS011;12895;51.064;7.028;2023-07-20T06:14:44;13.47;;;12.27;;
4833;SDS011;12895;51.064;7.028;2023-07-20T06:17:33;14.67;;;13.37;;
4833;SDS011;12895;51.064;7.028;2023-07-20T06:20:20;15.07;;;13.67;;
4833;SDS011;12895;51.064;7.028;2023-07-20T06:23:08;15.77;;;14.23;;
4833;SDS011;12895;51.064;7.028;2023-07-20T06:25:55;15.93;;;14.33;;
4833;SDS011;12895;51.064;7.028;2023-07-20T06:28:42;14.93;;;13.50;;
4833;SDS011;12895;51.064;7.028;2023-07-20T06:31:29;15.90;;;14.53;;
4833;SDS011;12895;51.064;7.028;2023-07-20T06:34:17;14.80;;;13.40;;
4833;SDS011;12895;51.064;7.028;2023-07-20T06:37:05;14.80;;;13.30;;
4833;SDS011;12895;51.064;7.028;2023-07-20T06:39:52;15.47;;;13.80;;
4833;SDS011;12895;51.064;7.028;2023-07-20T06:42:39;15.60;;;13.93;;
4833;SDS011;12895;51.064;7.028;2023-07-20T06:45:26;14.87;;;13.67;;
4833;SDS011;12895;51.064;7.028;2023-07-20T06:48:13;15.77;;;14.30;;
4833;SDS011;12895;51.064;7.028;2023-07-20T06:51:01;16.30;;;14.87;;
4833;SDS011;12895;51.064;7.028;2023-07-20T06:53:48;17.87;;;16.47;;
4833;SDS011;12895;51.064;7.028;2023-07-20T06:56:35;16.30;;;14.83;;
4833;SDS011;12895;51.064;7.028;2023-07-20T06:59:22;19.87;;;17.57;;
4833;SDS011;12895;51.064;7.028;2023-07-20T07:02:10;18.53;;;16.93;;
4833;SDS011;12895;51.064;7.028;2023-07-20T07:04:56;16.77;;;15.37;;
4833;SDS011;12895;51.064;7.028;2023-07-20T07:07:45;17.07;;;15.57;;
4833;SDS011;12895;51.064;7.028;2023-07-20T07:10:32;17.17;;;15.67;;
4833;SDS011;12895;51.064;7.028;2023-07-20T07:13:20;16.93;;;15.43;;
4833;SDS011;12895;51.064;7.028;2023-07-20T07:16:07;15.80;;;14.50;;
4833;SDS011;12895;51.064;7.028;2023-07-20T07:18:56;15.50;;;14.30;;
4833;SDS011;12895;51.064;7.028;2023-07-20T07:21:43;16.00;;;14.40;;
4833;SDS011;12895;51.064;7.028;2023-07-20T07:24:32;14.07;;;12.97;;
4833;SDS011;12895;51.064;7.028;2023-07-20T07:27:20;14.87;;;13.33;;
4833;SDS011;12895;51.064;7.028;2023-07-20T07:30:07;12.77;;;11.67;;
4833;SDS011;12895;51.064;7.028;2023-07-20T07:32:54;13.07;;;11.77;;
4833;SDS011;12895;51.064;7.028;2023-07-20T07:35:41;14.07;;;12.87;;
4833;SDS011;12895;51.064;7.028;2023-07-20T07:38:28;14.37;;;13.10;;
4833;SDS011;12895;51.064;7.028;2023-07-20T07:41:17;15.10;;;14.00;;
4833;SDS011;12895;51.064;7.028;2023-07-20T07:44:04;14.97;;;13.80;;
4833;SDS011;12895;51.064;7.028;2023-07-20T07:46:51;14.40;;;13.00;;
4833;SDS011;12895;51.064;7.028;2023-07-20T07:49:38;12.83;;;11.53;;
4833;SDS011;12895;51.064;7.028;2023-07-20T07:52:25;11.10;;;10.00;;
4833;SDS011;12895;51.064;7.028;2023-07-20T07:55:13;9.57;;;7.70;;
4833;SDS011;12895;51.064;7.028;2023-07-20T07:58:03;8.63;;;8.03;;
4833;SDS011;12895;51.064;7.028;2023-07-20T08:00:50;9.93;;;9.23;;
4833;SDS011;12895;51.064;7.028;2023-07-20T08:03:37;8.43;;;7.73;;
4833;SDS011;12895;51.064;7.028;2023-07-20T08:06:24;9.33;;;8.50;;
4833;SDS011;12895;51.064;7.028;2023-07-20T08:09:11;9.83;;;9.00;;
4833;SDS011;12895;51.064;7.028;2023-07-20T08:11:58;11.10;;;10.00;;
4833;SDS011;12895;51.064;7.028;2023-07-20T08:14:47;9.97;;;9.10;;
4833;SDS011;12895;51.064;7.028;2023-07-20T08:17:34;8.97;;;8.10;;
4833;SDS011;12895;51.064;7.028;2023-07-20T08:20:21;7.30;;;6.60;;
4833;SDS011;12895;51.064;7.028;2023-07-20T08:23:12;7.07;;;6.50;;
4833;SDS011;12895;51.064;7.028;2023-07-20T08:25:59;4.90;;;4.50;;
4833;SDS011;12895;51.064;7.028;2023-07-20T08:28:46;3.30;;;3.10;;
4833;SDS011;12895;51.064;7.028;2023-07-20T08:31:35;4.00;;;3.20;;
4833;SDS011;12895;51.064;7.028;2023-07-20T08:34:22;2.83;;;2.63;;
4833;SDS011;12895;51.064;7.028;2023-07-20T08:37:09;3.30;;;3.00;;
4833;SDS011;12895;51.064;7.028;2023-07-20T08:39:56;3.03;;;2.83;;
4833;SDS011;12895;51.064;7.028;2023-07-20T08:42:43;3.10;;;2.80;;
4833;SDS011;12895;51.064;7.028;2023-07-20T08:45:32;3.03;;;2.83;;
4833;SDS011;12895;51.064;7.028;2023-07-20T08:48:22;2.70;;;2.43;;
4833;SDS011;12895;51.064;7.028;2023-07-20T08:51:12;3.40;;;3.03;;
4833;SDS011;12895;51.064;7.028;2023-07-20T08:54:00;6.40;;;2.83;;
4833;SDS011;12895;51.064;7.028;2023-07-20T08:56:48;3.80;;;3.50;;
4833;SDS011;12895;51.064;7.028;2023-07-20T08:59:36;4.03;;;3.20;;
4833;SDS011;12895;51.064;7.028;2023-07-20T09:02:24;3.10;;;2.80;;
4833;SDS011;12895;51.064;7.028;2023-07-20T09:05:15;5.10;;;3.07;;
4833;SDS011;12895;51.064;7.028;2023-07-20T09:08:02;3.83;;;3.53;;
4833;SDS011;12895;51.064;7.028;2023-07-20T09:10:49;4.03;;;2.70;;
4833;SDS011;12895;51.064;7.028;2023-07-20T09:13:37;2.83;;;2.67;;
4833;SDS011;12895;51.064;7.028;2023-07-20T09:16:24;2.67;;;2.50;;
4833;SDS011;12895;51.064;7.028;2023-07-20T09:19:11;2.20;;;2.00;;
4833;SDS011;12895;51.064;7.028;2023-07-20T09:21:59;2.63;;;2.20;;
4833;SDS011;12895;51.064;7.028;2023-07-20T09:24:47;2.03;;;1.77;;
4833;SDS011;12895;51.064;7.028;2023-07-20T09:27:37;2.07;;;1.87;;
4833;SDS011;12895;51.064;7.028;2023-07-20T09:30:25;2.90;;;1.80;;
4833;SDS011;12895;51.064;7.028;2023-07-20T09:33:18;2.20;;;2.10;;
4833;SDS011;12895;51.064;7.028;2023-07-20T09:36:05;4.97;;;2.77;;
4833;SDS011;12895;51.064;7.028;2023-07-20T09:38:54;3.80;;;2.50;;
4833;SDS011;12895;51.064;7.028;2023-07-20T09:41:41;3.00;;;2.50;;
4833;SDS011;12895;51.064;7.028;2023-07-20T09:44:28;1.80;;;1.70;;
4833;SDS011;12895;51.064;7.028;2023-07-20T09:47:21;2.50;;;2.30;;
4833;SDS011;12895;51.064;7.028;2023-07-20T09:50:09;2.03;;;1.60;;
4833;SDS011;12895;51.064;7.028;2023-07-20T09:52:57;1.60;;;1.50;;
4833;SDS011;12895;51.064;7.028;2023-07-20T09:55:47;3.20;;;1.33;;
4833;SDS011;12895;51.064;7.028;2023-07-20T09:58:35;1.60;;;1.50;;
4833;SDS011;12895;51.064;7.028;2023-07-20T10:01:23;2.57;;;1.57;;
4833;SDS011;12895;51.064;7.028;2023-07-20T10:04:11;1.97;;;1.70;;
4833;SDS011;12895;51.064;7.028;2023-07-20T10:06:59;2.77;;;1.50;;
4833;SDS011;12895;51.064;7.028;2023-07-20T10:09:52;1.50;;;1.40;;
4833;SDS011;12895;51.064;7.028;2023-07-20T10:12:41;2.30;;;1.43;;
4833;SDS011;12895;51.064;7.028;2023-07-20T10:15:30;1.70;;;1.43;;
4833;SDS011;12895;51.064;7.028;2023-07-20T10:18:25;1.60;;;1.50;;
4833;SDS011;12895;51.064;7.028;2023-07-20T10:21:16;1.73;;;1.30;;
4833;SDS011;12895;51.064;7.028;2023-07-20T10:24:05;1.63;;;1.53;;
4833;SDS011;12895;51.064;7.028;2023-07-20T10:26:55;1.70;;;1.20;;
4833;SDS011;12895;51.064;7.028;2023-07-20T10:29:44;2.30;;;1.43;;
4833;SDS011;12895;51.064;7.028;2023-07-20T10:32:31;1.70;;;1.60;;
4833;SDS011;12895;51.064;7.028;2023-07-20T10:35:18;1.30;;;1.20;;
4833;SDS011;12895;51.064;7.028;2023-07-20T10:38:05;1.40;;;1.30;;
4833;SDS011;12895;51.064;7.028;2023-07-20T10:40:54;2.47;;;2.27;;
4833;SDS011;12895;51.064;7.028;2023-07-20T10:43:42;2.40;;;2.20;;
4833;SDS011;12895;51.064;7.028;2023-07-20T10:49:33;3.63;;;1.80;;
4833;SDS011;12895;51.064;7.028;2023-07-20T10:52:20;1.97;;;1.80;;
4833;SDS011;12895;51.064;7.028;2023-07-20T10:55:11;2.47;;;2.13;;
4833;SDS011;12895;51.064;7.028;2023-07-20T10:58:06;1.63;;;1.53;;
4833;SDS011;12895;51.064;7.028;2023-07-20T11:00:57;1.57;;;1.47;;
4833;SDS011;12895;51.064;7.028;2023-07-20T11:03:49;1.80;;;1.70;;
4833;SDS011;12895;51.064;7.028;2023-07-20T11:06:36;1.93;;;1.83;;
4833;SDS011;12895;51.064;7.028;2023-07-20T11:09:26;1.57;;;1.47;;
4833;SDS011;12895;51.064;7.028;2023-07-20T11:12:20;2.07;;;1.87;;
4833;SDS011;12895;51.064;7.028;2023-07-20T11:15:08;3.17;;;1.70;;
4833;SDS011;12895;51.064;7.028;2023-07-20T11:18:09;2.07;;;1.40;;
4833;SDS011;12895;51.064;7.028;2023-07-20T11:21:00;1.37;;;1.27;;
4833;SDS011;12895;51.064;7.028;2023-07-20T11:23:47;1.60;;;1.50;;
4833;SDS011;12895;51.064;7.028;2023-07-20T11:26:41;1.50;;;1.40;;
4833;SDS011;12895;51.064;7.028;2023-07-20T11:29:29;1.67;;;1.57;;
4833;SDS011;12895;51.064;7.028;2023-07-20T11:32:20;2.30;;;1.80;;
4833;SDS011;12895;51.064;7.028;2023-07-20T11:35:12;1.50;;;1.40;;
4833;SDS011;12895;51.064;7.028;2023-07-20T11:38:01;1.70;;;1.60;;
4833;SDS011;12895;51.064;7.028;2023-07-20T11:40:48;4.57;;;1.40;;
4833;SDS011;12895;51.064;7.028;2023-07-20T11:43:35;1.27;;;1.17;;
4833;SDS011;12895;51.064;7.028;2023-07-20T11:46:23;2.10;;;1.70;;
4833;SDS011;12895;51.064;7.028;2023-07-20T11:49:10;2.07;;;1.80;;
4833;SDS011;12895;51.064;7.028;2023-07-20T11:51:58;1.70;;;1.47;;
4833;SDS011;12895;51.064;7.028;2023-07-20T11:54:47;1.30;;;1.20;;
4833;SDS011;12895;51.064;7.028;2023-07-20T11:57:34;1.53;;;1.43;;
4833;SDS011;12895;51.064;7.028;2023-07-20T12:00:24;1.67;;;1.53;;
4833;SDS011;12895;51.064;7.028;2023-07-20T12:03:11;3.80;;;1.40;;
4833;SDS011;12895;51.064;7.028;2023-07-20T12:06:05;3.30;;;1.53;;
4833;SDS011;12895;51.064;7.028;2023-07-20T12:08:54;1.70;;;1.20;;
4833;SDS011;12895;51.064;7.028;2023-07-20T12:11:44;1.30;;;1.10;;
4833;SDS011;12895;51.064;7.028;2023-07-20T12:14:31;1.43;;;1.30;;
4833;SDS011;12895;51.064;7.028;2023-07-20T12:17:18;1.63;;;1.10;;
4833;SDS011;12895;51.064;7.028;2023-07-20T12:20:06;1.30;;;1.13;;
4833;SDS011;12895;51.064;7.028;2023-07-20T12:22:56;1.33;;;1.23;;
4833;SDS011;12895;51.064;7.028;2023-07-20T12:25:45;1.30;;;1.20;;
4833;SDS011;12895;51.064;7.028;2023-07-20T12:28:35;1.30;;;1.20;;
4833;SDS011;12895;51.064;7.028;2023-07-20T12:31:25;1.93;;;1.20;;
4833;SDS011;12895;51.064;7.028;2023-07-20T12:34:12;1.30;;;1.20;;
4833;SDS011;12895;51.064;7.028;2023-07-20T12:37:02;1.50;;;1.40;;
4833;SDS011;12895;51.064;7.028;2023-07-20T12:39:50;1.50;;;1.40;;
4833;SDS011;12895;51.064;7.028;2023-07-20T12:42:37;2.60;;;1.67;;
4833;SDS011;12895;51.064;7.028;2023-07-20T12:45:26;1.73;;;1.63;;
4833;SDS011;12895;51.064;7.028;2023-07-20T12:48:13;1.40;;;1.30;;
4833;SDS011;12895;51.064;7.028;2023-07-20T12:51:00;1.50;;;1.40;;
4833;SDS011;12895;51.064;7.028;2023-07-20T12:53:47;2.03;;;1.30;;
4833;SDS011;12895;51.064;7.028;2023-07-20T12:56:34;1.60;;;1.50;;
4833;SDS011;12895;51.064;7.028;2023-07-20T12:59:21;3.47;;;1.60;;
4833;SDS011;12895;51.064;7.028;2023-07-20T13:02:10;2.30;;;1.47;;
4833;SDS011;12895;51.064;7.028;2023-07-20T13:04:57;1.40;;;1.30;;
4833;SDS011;12895;51.064;7.028;2023-07-20T13:07:44;1.50;;;1.40;;
4833;SDS011;12895;51.064;7.028;2023-07-20T13:10:31;1.40;;;1.30;;
4833;SDS011;12895;51.064;7.028;2023-07-20T13:13:18;2.00;;;1.60;;
4833;SDS011;12895;51.064;7.028;2023-07-20T13:16:06;1.87;;;1.30;;
4833;SDS011;12895;51.064;7.028;2023-07-20T13:18:54;1.50;;;1.30;;
4833;SDS011;12895;51.064;7.028;2023-07-20T13:21:41;1.20;;;1.10;;
4833;SDS011;12895;51.064;7.028;2023-07-20T13:24:28;1.50;;;1.40;;
4833;SDS011;12895;51.064;7.028;2023-07-20T13:27:15;2.03;;;1.30;;
4833;SDS011;12895;51.064;7.028;2023-07-20T13:30:04;1.50;;;1.27;;
4833;SDS011;12895;51.064;7.028;2023-07-20T13:32:55;2.03;;;1.60;;
4833;SDS011;12895;51.064;7.028;2023-07-20T13:35:43;1.70;;;1.53;;
4833;SDS011;12895;51.064;7.028;2023-07-20T13:38:30;1.50;;;1.40;;
4833;SDS011;12895;51.064;7.028;2023-07-20T13:41:18;1.50;;;1.40;;
4833;SDS011;12895;51.064;7.028;2023-07-20T13:44:05;2.10;;;1.50;;
4833;SDS011;12895;51.064;7.028;2023-07-20T13:46:52;1.97;;;1.60;;
4833;SDS011;12895;51.064;7.028;2023-07-20T13:49:39;3.00;;;1.90;;
4833;SDS011;12895;51.064;7.028;2023-07-20T13:52:28;4.63;;;2.90;;
4833;SDS011;12895;51.064;7.028;2023-07-20T13:55:15;1.87;;;1.77;;
4833;SDS011;12895;51.064;7.028;2023-07-20T13:58:02;2.20;;;2.10;;
4833;SDS011;12895;51.064;7.028;2023-07-20T14:00:49;1.50;;;1.40;;
4833;SDS011;12895;51.064;7.028;2023-07-20T14:03:36;1.83;;;1.73;;
4833;SDS011;12895;51.064;7.028;2023-07-20T14:06:24;1.40;;;1.30;;
4833;SDS011;12895;51.064;7.028;2023-07-20T14:09:12;2.40;;;1.70;;
4833;SDS011;12895;51.064;7.028;2023-07-20T14:11:59;2.17;;;1.80;;
4833;SDS011;12895;51.064;7.028;2023-07-20T14:14:46;2.03;;;1.50;;
4833;SDS011;12895;51.064;7.028;2023-07-20T14:17:33;2.43;;;1.50;;
4833;SDS011;12895;51.064;7.028;2023-07-20T14:20:20;2.07;;;1.30;;
4833;SDS011;12895;51.064;7.028;2023-07-20T14:23:07;1.80;;;1.70;;
4833;SDS011;12895;51.064;7.028;2023-07-20T14:25:56;1.77;;;1.60;;
4833;SDS011;12895;51.064;7.028;2023-07-20T14:28:43;1.70;;;1.60;;
4833;SDS011;12895;51.064;7.028;2023-07-20T14:31:30;2.63;;;1.60;;
4833;SDS011;12895;51.064;7.028;2023-07-20T14:34:17;1.60;;;1.33;;
4833;SDS011;12895;51.064;7.028;2023-07-20T14:37:04;1.47;;;1.37;;
4833;SDS011;12895;51.064;7.028;2023-07-20T14:39:51;1.50;;;1.40;;
4833;SDS011;12895;51.064;7.028;2023-07-20T14:42:40;1.47;;;1.33;;
4833;SDS011;12895;51.064;7.028;2023-07-20T14:45:27;3.57;;;2.00;;
4833;SDS011;12895;51.064;7.028;2023-07-20T14:48:16;2.27;;;2.07;;
4833;SDS011;12895;51.064;7.028;2023-07-20T14:51:03;2.33;;;2.23;;
4833;SDS011;12895;51.064;7.028;2023-07-20T14:53:50;1.53;;;1.43;;
4833;SDS011;12895;51.064;7.028;2023-07-20T14:56:38;1.30;;;1.20;;
4833;SDS011;12895;51.064;7.028;2023-07-20T14:59:26;1.73;;;1.33;;
4833;SDS011;12895;51.064;7.028;2023-07-20T15:02:14;1.43;;;1.33;;
4833;SDS011;12895;51.064;7.028;2023-07-20T15:05:01;2.27;;;1.20;;
4833;SDS011;12895;51.064;7.028;2023-07-20T15:07:48;1.53;;;1.37;;
4833;SDS011;12895;51.064;7.028;2023-07-20T15:10:35;1.57;;;1.40;;
4833;SDS011;12895;51.064;7.028;2023-07-20T15:13:22;1.53;;;1.40;;
4833;SDS011;12895;51.064;7.028;2023-07-20T15:16:10;3.07;;;1.57;;
4833;SDS011;12895;51.064;7.028;2023-07-20T15:18:57;1.60;;;1.50;;
4833;SDS011;12895;51.064;7.028;2023-07-20T15:21:44;1.20;;;1.10;;
4833;SDS011;12895;51.064;7.028;2023-07-20T15:24:31;1.27;;;1.17;;
4833;SDS011;12895;51.064;7.028;2023-07-20T15:27:18;1.27;;;1.10;;
4833;SDS011;12895;51.064;7.028;2023-07-20T15:30:06;2.10;;;1.07;;
4833;SDS011;12895;51.064;7.028;2023-07-20T15:32:55;1.40;;;1.30;;
4833;SDS011;12895;51.064;7.028;2023-07-20T15:35:43;1.70;;;1.23;;
4833;SDS011;12895;51.064;7.028;2023-07-20T15:38:30;1.50;;;1.40;;
4833;SDS011;12895;51.064;7.028;2023-07-20T15:41:17;7.20;;;1.97;;
4833;SDS011;12895;51.064;7.028;2023-07-20T15:44:04;1.40;;;1.30;;
4833;SDS011;12895;51.064;7.028;2023-07-20T15:46:51;2.17;;;1.43;;
4833;SDS011;12895;51.064;7.028;2023-07-20T15:49:40;2.03;;;1.37;;
4833;SDS011;12895;51.064;7.028;2023-07-20T15:52:27;2.23;;;1.43;;
4833;SDS011;12895;51.064;7.028;2023-07-20T15:55:14;2.83;;;1.63;;
4833;SDS011;12895;51.064;7.028;2023-07-20T15:58:01;2.20;;;1.43;;
4833;SDS011;12895;51.064;7.028;2023-07-20T16:00:52;2.30;;;1.57;;
4833;SDS011;12895;51.064;7.028;2023-07-20T16:03:40;1.50;;;1.30;;
4833;SDS011;12895;51.064;7.028;2023-07-20T16:06:28;2.13;;;2.03;;
4833;SDS011;12895;51.064;7.028;2023-07-20T16:09:16;1.10;;;1.00;;
4833;SDS011;12895;51.064;7.028;2023-07-20T16:12:03;1.77;;;1.20;;
4833;SDS011;12895;51.064;7.028;2023-07-20T16:14:52;5.33;;;1.67;;
4833;SDS011;12895;51.064;7.028;2023-07-20T16:17:39;1.70;;;1.60;;
4833;SDS011;12895;51.064;7.028;2023-07-20T16:20:26;1.50;;;1.40;;
4833;SDS011;12895;51.064;7.028;2023-07-20T16:23:14;1.43;;;1.23;;
4833;SDS011;12895;51.064;7.028;2023-07-20T16:26:01;1.50;;;1.40;;
4833;SDS011;12895;51.064;7.028;2023-07-20T16:28:49;1.57;;;1.13;;
4833;SDS011;12895;51.064;7.028;2023-07-20T16:31:36;1.50;;;1.40;;
4833;SDS011;12895;51.064;7.028;2023-07-20T16:34:22;1.43;;;1.33;;
4833;SDS011;12895;51.064;7.028;2023-07-20T16:37:10;2.10;;;1.63;;
4833;SDS011;12895;51.064;7.028;2023-07-20T16:39:58;1.60;;;1.50;;
4833;SDS011;12895;51.064;7.028;2023-07-20T16:42:45;1.60;;;1.40;;
4833;SDS011;12895;51.064;7.028;2023-07-20T16:45:32;1.30;;;1.20;;
4833;SDS011;12895;51.064;7.028;2023-07-20T16:48:19;1.63;;;1.30;;
4833;SDS011;12895;51.064;7.028;2023-07-20T16:51:06;1.83;;;1.40;;
4833;SDS011;12895;51.064;7.028;2023-07-20T16:53:53;1.40;;;1.30;;
4833;SDS011;12895;51.064;7.028;2023-07-20T16:56:41;1.40;;;1.30;;
4833;SDS011;12895;51.064;7.028;2023-07-20T16:59:28;2.53;;;1.50;;
4833;SDS011;12895;51.064;7.028;2023-07-20T17:02:15;1.70;;;1.60;;
4833;SDS011;12895;51.064;7.028;2023-07-20T17:05:03;1.60;;;1.47;;
4833;SDS011;12895;51.064;7.028;2023-07-20T17:07:55;1.50;;;1.37;;
4833;SDS011;12895;51.064;7.028;2023-07-20T17:10:42;1.57;;;1.47;;